sensor_id;sensor_type;location;lat;lon;timestamp;P1;durP1;ratioP1;P2;durP2;ratioP2
58472;SDS011;44775;51.564;5.460;2022-12-17T00:00:08;116.70;;;49.65;;
58472;SDS011;44775;51.564;5.460;2022-12-17T00:02:56;104.13;;;46.75;;
58472;SDS011;44775;51.564;5.460;2022-12-17T00:05:40;106.82;;;45.70;;
58472;SDS011;44775;51.564;5.460;2022-12-17T00:08:24;110.43;;;48.53;;
58472;SDS011;44775;51.564;5.460;2022-12-17T00:11:08;103.38;;;46.03;;
58472;SDS011;44775;51.564;5.460;2022-12-17T00:13:52;106.78;;;47.88;;
58472;SDS011;44775;51.564;5.460;2022-12-17T00:16:36;114.10;;;49.90;;
58472;SDS011;44775;51.564;5.460;2022-12-17T00:19:20;107.93;;;48.97;;
58472;SDS011;44775;51.564;5.460;2022-12-17T00:22:04;114.15;;;48.80;;
58472;SDS011;44775;51.564;5.460;2022-12-17T00:24:48;108.70;;;46.85;;
58472;SDS011;44775;51.564;5.460;2022-12-17T00:27:32;108.32;;;46.63;;
58472;SDS011;44775;51.564;5.460;2022-12-17T00:30:15;111.30;;;48.25;;
58472;SDS011;44775;51.564;5.460;2022-12-17T00:32:59;115.22;;;48.33;;
58472;SDS011;44775;51.564;5.460;2022-12-17T00:35:49;105.60;;;49.10;;
58472;SDS011;44775;51.564;5.460;2022-12-17T00:38:34;110.75;;;47.90;;
58472;SDS011;44775;51.564;5.460;2022-12-17T00:41:18;100.85;;;48.10;;
58472;SDS011;44775;51.564;5.460;2022-12-17T00:44:02;109.90;;;48.72;;
58472;SDS011;44775;51.564;5.460;2022-12-17T00:46:46;108.07;;;48.25;;
58472;SDS011;44775;51.564;5.460;2022-12-17T00:49:29;104.68;;;46.22;;
58472;SDS011;44775;51.564;5.460;2022-12-17T00:52:13;104.55;;;46.13;;
58472;SDS011;44775;51.564;5.460;2022-12-17T00:54:57;101.93;;;46.92;;
58472;SDS011;44775;51.564;5.460;2022-12-17T00:57:41;105.82;;;44.72;;
58472;SDS011;44775;51.564;5.460;2022-12-17T01:00:25;99.00;;;45.90;;
58472;SDS011;44775;51.564;5.460;2022-12-17T01:03:10;103.90;;;47.65;;
58472;SDS011;44775;51.564;5.460;2022-12-17T01:05:55;111.75;;;48.88;;
58472;SDS011;44775;51.564;5.460;2022-12-17T01:08:39;113.97;;;48.72;;
58472;SDS011;44775;51.564;5.460;2022-12-17T01:11:23;102.88;;;46.58;;
58472;SDS011;44775;51.564;5.460;2022-12-17T01:14:07;101.70;;;45.90;;
58472;SDS011;44775;51.564;5.460;2022-12-17T01:16:51;105.40;;;46.70;;
58472;SDS011;44775;51.564;5.460;2022-12-17T01:19:35;103.78;;;46.72;;
58472;SDS011;44775;51.564;5.460;2022-12-17T01:22:18;110.68;;;48.05;;
58472;SDS011;44775;51.564;5.460;2022-12-17T01:25:03;110.07;;;48.42;;
58472;SDS011;44775;51.564;5.460;2022-12-17T01:27:48;110.05;;;47.67;;
58472;SDS011;44775;51.564;5.460;2022-12-17T01:30:34;109.68;;;47.85;;
58472;SDS011;44775;51.564;5.460;2022-12-17T01:33:18;105.00;;;48.22;;
58472;SDS011;44775;51.564;5.460;2022-12-17T01:36:02;109.47;;;49.17;;
58472;SDS011;44775;51.564;5.460;2022-12-17T01:38:46;112.22;;;49.33;;
58472;SDS011;44775;51.564;5.460;2022-12-17T01:41:30;111.63;;;48.95;;
58472;SDS011;44775;51.564;5.460;2022-12-17T01:47:16;110.47;;;46.28;;
58472;SDS011;44775;51.564;5.460;2022-12-17T01:50:00;114.07;;;48.45;;
58472;SDS011;44775;51.564;5.460;2022-12-17T01:52:44;109.10;;;48.40;;
58472;SDS011;44775;51.564;5.460;2022-12-17T01:55:29;103.93;;;47.33;;
58472;SDS011;44775;51.564;5.460;2022-12-17T01:58:13;113.15;;;49.60;;
58472;SDS011;44775;51.564;5.460;2022-12-17T02:00:57;105.75;;;47.28;;
58472;SDS011;44775;51.564;5.460;2022-12-17T02:03:40;108.18;;;46.80;;
58472;SDS011;44775;51.564;5.460;2022-12-17T02:06:25;99.07;;;43.20;;
58472;SDS011;44775;51.564;5.460;2022-12-17T02:12:12;110.22;;;46.38;;
58472;SDS011;44775;51.564;5.460;2022-12-17T02:15:08;109.20;;;42.60;;
58472;SDS011;44775;51.564;5.460;2022-12-17T02:18:04;104.20;;;44.33;;
58472;SDS011;44775;51.564;5.460;2022-12-17T02:20:53;114.30;;;47.08;;
58472;SDS011;44775;51.564;5.460;2022-12-17T02:23:42;113.57;;;47.15;;
58472;SDS011;44775;51.564;5.460;2022-12-17T02:26:50;104.20;;;46.08;;
58472;SDS011;44775;51.564;5.460;2022-12-17T02:29:37;102.47;;;44.75;;
58472;SDS011;44775;51.564;5.460;2022-12-17T02:35:21;106.43;;;43.00;;
58472;SDS011;44775;51.564;5.460;2022-12-17T02:41:01;111.57;;;46.22;;
58472;SDS011;44775;51.564;5.460;2022-12-17T02:43:49;115.38;;;47.25;;
58472;SDS011;44775;51.564;5.460;2022-12-17T02:46:34;110.60;;;46.63;;
58472;SDS011;44775;51.564;5.460;2022-12-17T02:49:18;111.03;;;46.97;;
58472;SDS011;44775;51.564;5.460;2022-12-17T02:52:02;111.07;;;45.22;;
58472;SDS011;44775;51.564;5.460;2022-12-17T02:54:47;106.03;;;44.13;;
58472;SDS011;44775;51.564;5.460;2022-12-17T02:57:31;110.40;;;44.13;;
58472;SDS011;44775;51.564;5.460;2022-12-17T03:00:15;111.55;;;44.63;;
58472;SDS011;44775;51.564;5.460;2022-12-17T03:02:58;120.53;;;45.97;;
58472;SDS011;44775;51.564;5.460;2022-12-17T03:05:42;116.07;;;46.17;;
58472;SDS011;44775;51.564;5.460;2022-12-17T03:08:26;109.82;;;46.10;;
58472;SDS011;44775;51.564;5.460;2022-12-17T03:11:10;108.95;;;44.90;;
58472;SDS011;44775;51.564;5.460;2022-12-17T03:13:54;120.38;;;47.53;;
58472;SDS011;44775;51.564;5.460;2022-12-17T03:16:38;109.50;;;46.30;;
58472;SDS011;44775;51.564;5.460;2022-12-17T03:19:22;111.18;;;45.33;;
58472;SDS011;44775;51.564;5.460;2022-12-17T03:22:06;112.28;;;46.40;;
58472;SDS011;44775;51.564;5.460;2022-12-17T03:24:50;117.32;;;47.85;;
58472;SDS011;44775;51.564;5.460;2022-12-17T03:27:34;118.55;;;48.30;;
58472;SDS011;44775;51.564;5.460;2022-12-17T03:30:18;114.43;;;48.30;;
58472;SDS011;44775;51.564;5.460;2022-12-17T03:33:02;122.72;;;49.95;;
58472;SDS011;44775;51.564;5.460;2022-12-17T03:35:46;120.15;;;48.60;;
58472;SDS011;44775;51.564;5.460;2022-12-17T03:38:29;117.03;;;47.88;;
58472;SDS011;44775;51.564;5.460;2022-12-17T03:41:14;114.72;;;46.42;;
58472;SDS011;44775;51.564;5.460;2022-12-17T03:43:58;112.90;;;48.88;;
58472;SDS011;44775;51.564;5.460;2022-12-17T03:46:42;120.28;;;49.90;;
58472;SDS011;44775;51.564;5.460;2022-12-17T03:49:25;113.28;;;46.97;;
58472;SDS011;44775;51.564;5.460;2022-12-17T03:52:09;112.22;;;48.55;;
58472;SDS011;44775;51.564;5.460;2022-12-17T03:54:53;113.22;;;46.70;;
58472;SDS011;44775;51.564;5.460;2022-12-17T03:57:37;117.53;;;49.00;;
58472;SDS011;44775;51.564;5.460;2022-12-17T04:00:21;116.72;;;49.47;;
58472;SDS011;44775;51.564;5.460;2022-12-17T04:03:05;119.95;;;49.63;;
58472;SDS011;44775;51.564;5.460;2022-12-17T04:05:49;119.05;;;48.53;;
58472;SDS011;44775;51.564;5.460;2022-12-17T04:08:33;123.57;;;50.75;;
58472;SDS011;44775;51.564;5.460;2022-12-17T04:11:17;113.93;;;47.47;;
58472;SDS011;44775;51.564;5.460;2022-12-17T04:14:02;121.65;;;48.83;;
58472;SDS011;44775;51.564;5.460;2022-12-17T04:16:45;111.30;;;47.85;;
58472;SDS011;44775;51.564;5.460;2022-12-17T04:19:29;118.72;;;51.58;;
58472;SDS011;44775;51.564;5.460;2022-12-17T04:22:13;115.25;;;49.10;;
58472;SDS011;44775;51.564;5.460;2022-12-17T04:24:57;116.60;;;47.83;;
58472;SDS011;44775;51.564;5.460;2022-12-17T04:27:41;120.00;;;49.90;;
58472;SDS011;44775;51.564;5.460;2022-12-17T04:30:25;115.00;;;48.40;;
58472;SDS011;44775;51.564;5.460;2022-12-17T04:33:09;123.80;;;50.38;;
58472;SDS011;44775;51.564;5.460;2022-12-17T04:35:53;122.18;;;52.00;;
58472;SDS011;44775;51.564;5.460;2022-12-17T04:38:37;122.50;;;49.33;;
58472;SDS011;44775;51.564;5.460;2022-12-17T04:41:21;115.65;;;49.42;;
58472;SDS011;44775;51.564;5.460;2022-12-17T04:44:05;113.75;;;49.50;;
58472;SDS011;44775;51.564;5.460;2022-12-17T04:46:48;117.25;;;48.03;;
58472;SDS011;44775;51.564;5.460;2022-12-17T04:49:32;114.47;;;48.25;;
58472;SDS011;44775;51.564;5.460;2022-12-17T04:52:16;125.07;;;51.20;;
58472;SDS011;44775;51.564;5.460;2022-12-17T04:55:00;118.65;;;48.22;;
58472;SDS011;44775;51.564;5.460;2022-12-17T04:57:44;118.28;;;48.85;;
58472;SDS011;44775;51.564;5.460;2022-12-17T05:00:28;118.70;;;49.13;;
58472;SDS011;44775;51.564;5.460;2022-12-17T05:03:13;122.47;;;49.90;;
58472;SDS011;44775;51.564;5.460;2022-12-17T05:05:58;121.40;;;48.53;;
58472;SDS011;44775;51.564;5.460;2022-12-17T05:08:42;120.35;;;49.28;;
58472;SDS011;44775;51.564;5.460;2022-12-17T05:11:26;122.75;;;49.95;;
58472;SDS011;44775;51.564;5.460;2022-12-17T05:14:10;125.25;;;50.45;;
58472;SDS011;44775;51.564;5.460;2022-12-17T05:16:54;119.57;;;49.22;;
58472;SDS011;44775;51.564;5.460;2022-12-17T05:19:38;126.20;;;51.20;;
58472;SDS011;44775;51.564;5.460;2022-12-17T05:22:22;111.60;;;47.88;;
58472;SDS011;44775;51.564;5.460;2022-12-17T05:25:06;115.72;;;47.08;;
58472;SDS011;44775;51.564;5.460;2022-12-17T05:27:51;118.75;;;48.28;;
58472;SDS011;44775;51.564;5.460;2022-12-17T05:30:35;122.93;;;48.85;;
58472;SDS011;44775;51.564;5.460;2022-12-17T05:33:18;120.70;;;47.88;;
58472;SDS011;44775;51.564;5.460;2022-12-17T05:36:03;116.72;;;48.17;;
58472;SDS011;44775;51.564;5.460;2022-12-17T05:38:47;110.60;;;46.75;;
58472;SDS011;44775;51.564;5.460;2022-12-17T05:41:31;109.45;;;44.95;;
58472;SDS011;44775;51.564;5.460;2022-12-17T05:44:26;103.13;;;44.00;;
58472;SDS011;44775;51.564;5.460;2022-12-17T05:47:10;100.18;;;43.15;;
58472;SDS011;44775;51.564;5.460;2022-12-17T05:49:54;101.22;;;43.20;;
58472;SDS011;44775;51.564;5.460;2022-12-17T05:52:37;105.82;;;45.13;;
58472;SDS011;44775;51.564;5.460;2022-12-17T05:55:21;99.28;;;41.60;;
58472;SDS011;44775;51.564;5.460;2022-12-17T05:58:07;102.90;;;42.80;;
58472;SDS011;44775;51.564;5.460;2022-12-17T06:00:57;105.85;;;44.78;;
58472;SDS011;44775;51.564;5.460;2022-12-17T06:03:42;105.05;;;43.60;;
58472;SDS011;44775;51.564;5.460;2022-12-17T06:06:27;112.95;;;43.88;;
58472;SDS011;44775;51.564;5.460;2022-12-17T06:09:11;108.38;;;45.38;;
58472;SDS011;44775;51.564;5.460;2022-12-17T06:12:14;101.85;;;42.47;;
58472;SDS011;44775;51.564;5.460;2022-12-17T06:14:59;102.60;;;41.45;;
58472;SDS011;44775;51.564;5.460;2022-12-17T06:18:02;109.63;;;44.95;;
58472;SDS011;44775;51.564;5.460;2022-12-17T06:20:47;103.65;;;42.50;;
58472;SDS011;44775;51.564;5.460;2022-12-17T06:23:31;112.30;;;44.58;;
58472;SDS011;44775;51.564;5.460;2022-12-17T06:26:14;105.18;;;43.60;;
58472;SDS011;44775;51.564;5.460;2022-12-17T06:28:58;111.47;;;44.25;;
58472;SDS011;44775;51.564;5.460;2022-12-17T06:31:42;108.22;;;44.03;;
58472;SDS011;44775;51.564;5.460;2022-12-17T06:34:26;107.57;;;42.50;;
58472;SDS011;44775;51.564;5.460;2022-12-17T06:37:10;112.85;;;44.25;;
58472;SDS011;44775;51.564;5.460;2022-12-17T06:39:54;107.35;;;41.25;;
58472;SDS011;44775;51.564;5.460;2022-12-17T06:42:38;104.45;;;42.03;;
58472;SDS011;44775;51.564;5.460;2022-12-17T06:45:22;105.22;;;42.13;;
58472;SDS011;44775;51.564;5.460;2022-12-17T06:48:06;112.57;;;43.10;;
58472;SDS011;44775;51.564;5.460;2022-12-17T06:50:54;104.55;;;42.85;;
58472;SDS011;44775;51.564;5.460;2022-12-17T06:53:39;107.85;;;43.08;;
58472;SDS011;44775;51.564;5.460;2022-12-17T06:56:24;105.82;;;42.22;;
58472;SDS011;44775;51.564;5.460;2022-12-17T06:59:08;101.47;;;40.90;;
58472;SDS011;44775;51.564;5.460;2022-12-17T07:01:52;109.25;;;42.05;;
58472;SDS011;44775;51.564;5.460;2022-12-17T07:04:36;108.57;;;41.95;;
58472;SDS011;44775;51.564;5.460;2022-12-17T07:07:20;73.32;;;27.65;;
58472;SDS011;44775;51.564;5.460;2022-12-17T07:10:04;99.60;;;42.00;;
58472;SDS011;44775;51.564;5.460;2022-12-17T07:12:49;106.03;;;42.67;;
58472;SDS011;44775;51.564;5.460;2022-12-17T07:15:32;102.68;;;42.22;;
58472;SDS011;44775;51.564;5.460;2022-12-17T07:18:16;105.72;;;42.42;;
58472;SDS011;44775;51.564;5.460;2022-12-17T07:21:00;98.03;;;38.28;;
58472;SDS011;44775;51.564;5.460;2022-12-17T07:23:44;112.57;;;43.00;;
58472;SDS011;44775;51.564;5.460;2022-12-17T07:26:28;106.57;;;41.67;;
58472;SDS011;44775;51.564;5.460;2022-12-17T07:29:13;103.53;;;43.65;;
58472;SDS011;44775;51.564;5.460;2022-12-17T07:31:57;104.13;;;42.17;;
58472;SDS011;44775;51.564;5.460;2022-12-17T07:34:41;102.50;;;42.50;;
58472;SDS011;44775;51.564;5.460;2022-12-17T07:37:25;108.15;;;45.13;;
58472;SDS011;44775;51.564;5.460;2022-12-17T07:40:09;105.25;;;43.25;;
58472;SDS011;44775;51.564;5.460;2022-12-17T07:42:53;107.28;;;41.38;;
58472;SDS011;44775;51.564;5.460;2022-12-17T07:45:37;101.38;;;38.95;;
58472;SDS011;44775;51.564;5.460;2022-12-17T07:48:21;109.78;;;42.25;;
58472;SDS011;44775;51.564;5.460;2022-12-17T07:51:05;100.55;;;40.40;;
58472;SDS011;44775;51.564;5.460;2022-12-17T07:53:49;106.43;;;40.90;;
58472;SDS011;44775;51.564;5.460;2022-12-17T07:56:33;110.97;;;42.65;;
58472;SDS011;44775;51.564;5.460;2022-12-17T07:59:17;103.72;;;38.83;;
58472;SDS011;44775;51.564;5.460;2022-12-17T08:02:00;98.22;;;37.67;;
58472;SDS011;44775;51.564;5.460;2022-12-17T08:04:44;98.15;;;38.30;;
58472;SDS011;44775;51.564;5.460;2022-12-17T08:07:28;100.32;;;39.67;;
58472;SDS011;44775;51.564;5.460;2022-12-17T08:10:12;107.30;;;38.35;;
58472;SDS011;44775;51.564;5.460;2022-12-17T08:12:57;100.50;;;37.65;;
58472;SDS011;44775;51.564;5.460;2022-12-17T08:15:42;103.82;;;39.22;;
58472;SDS011;44775;51.564;5.460;2022-12-17T08:18:27;110.03;;;40.45;;
58472;SDS011;44775;51.564;5.460;2022-12-17T08:21:11;103.90;;;38.25;;
58472;SDS011;44775;51.564;5.460;2022-12-17T08:23:55;97.63;;;36.60;;
58472;SDS011;44775;51.564;5.460;2022-12-17T08:26:39;96.07;;;35.28;;
58472;SDS011;44775;51.564;5.460;2022-12-17T08:29:23;86.47;;;30.90;;
58472;SDS011;44775;51.564;5.460;2022-12-17T08:32:07;80.97;;;30.42;;
58472;SDS011;44775;51.564;5.460;2022-12-17T08:34:51;84.80;;;30.55;;
58472;SDS011;44775;51.564;5.460;2022-12-17T08:37:35;105.63;;;38.05;;
58472;SDS011;44775;51.564;5.460;2022-12-17T08:40:18;101.85;;;38.60;;
58472;SDS011;44775;51.564;5.460;2022-12-17T08:43:03;93.38;;;34.45;;
58472;SDS011;44775;51.564;5.460;2022-12-17T08:45:47;104.00;;;37.50;;
58472;SDS011;44775;51.564;5.460;2022-12-17T08:48:32;100.20;;;35.97;;
58472;SDS011;44775;51.564;5.460;2022-12-17T08:51:17;65.95;;;26.30;;
58472;SDS011;44775;51.564;5.460;2022-12-17T08:54:01;99.47;;;36.03;;
58472;SDS011;44775;51.564;5.460;2022-12-17T08:56:45;104.55;;;36.78;;
58472;SDS011;44775;51.564;5.460;2022-12-17T08:59:28;97.43;;;36.22;;
58472;SDS011;44775;51.564;5.460;2022-12-17T09:02:12;93.20;;;35.15;;
58472;SDS011;44775;51.564;5.460;2022-12-17T09:04:56;92.20;;;34.47;;
58472;SDS011;44775;51.564;5.460;2022-12-17T09:07:42;93.97;;;35.88;;
58472;SDS011;44775;51.564;5.460;2022-12-17T09:10:26;96.78;;;35.85;;
58472;SDS011;44775;51.564;5.460;2022-12-17T09:13:11;100.50;;;35.13;;
58472;SDS011;44775;51.564;5.460;2022-12-17T09:15:55;101.13;;;36.38;;
58472;SDS011;44775;51.564;5.460;2022-12-17T09:18:39;102.85;;;34.38;;
58472;SDS011;44775;51.564;5.460;2022-12-17T09:21:25;98.07;;;36.53;;
58472;SDS011;44775;51.564;5.460;2022-12-17T09:24:10;101.03;;;37.65;;
58472;SDS011;44775;51.564;5.460;2022-12-17T09:26:54;98.38;;;34.67;;
58472;SDS011;44775;51.564;5.460;2022-12-17T09:29:38;93.55;;;35.28;;
58472;SDS011;44775;51.564;5.460;2022-12-17T09:32:22;99.35;;;37.17;;
58472;SDS011;44775;51.564;5.460;2022-12-17T09:35:06;104.00;;;39.17;;
58472;SDS011;44775;51.564;5.460;2022-12-17T09:37:51;98.75;;;35.85;;
58472;SDS011;44775;51.564;5.460;2022-12-17T09:40:37;100.05;;;36.88;;
58472;SDS011;44775;51.564;5.460;2022-12-17T09:43:25;95.57;;;33.75;;
58472;SDS011;44775;51.564;5.460;2022-12-17T09:46:33;103.07;;;38.72;;
58472;SDS011;44775;51.564;5.460;2022-12-17T09:49:23;102.78;;;38.85;;
58472;SDS011;44775;51.564;5.460;2022-12-17T09:52:20;101.60;;;39.75;;
58472;SDS011;44775;51.564;5.460;2022-12-17T09:55:14;102.63;;;37.78;;
58472;SDS011;44775;51.564;5.460;2022-12-17T09:58:02;106.72;;;38.15;;
58472;SDS011;44775;51.564;5.460;2022-12-17T10:00:47;98.72;;;36.72;;
58472;SDS011;44775;51.564;5.460;2022-12-17T10:03:34;104.00;;;39.10;;
58472;SDS011;44775;51.564;5.460;2022-12-17T10:06:21;102.18;;;39.58;;
58472;SDS011;44775;51.564;5.460;2022-12-17T10:09:12;102.53;;;38.22;;
58472;SDS011;44775;51.564;5.460;2022-12-17T10:12:14;102.18;;;38.17;;
58472;SDS011;44775;51.564;5.460;2022-12-17T10:14:59;94.43;;;38.13;;
58472;SDS011;44775;51.564;5.460;2022-12-17T10:17:44;100.57;;;39.30;;
58472;SDS011;44775;51.564;5.460;2022-12-17T10:20:42;96.18;;;37.38;;
58472;SDS011;44775;51.564;5.460;2022-12-17T10:23:33;95.68;;;39.33;;
58472;SDS011;44775;51.564;5.460;2022-12-17T10:26:18;101.20;;;40.40;;
58472;SDS011;44775;51.564;5.460;2022-12-17T10:29:05;101.10;;;38.10;;
58472;SDS011;44775;51.564;5.460;2022-12-17T10:34:56;96.80;;;36.38;;
58472;SDS011;44775;51.564;5.460;2022-12-17T10:37:42;98.70;;;39.08;;
58472;SDS011;44775;51.564;5.460;2022-12-17T10:40:27;94.10;;;37.15;;
58472;SDS011;44775;51.564;5.460;2022-12-17T10:43:36;98.17;;;38.97;;
58472;SDS011;44775;51.564;5.460;2022-12-17T10:46:25;88.72;;;34.92;;
58472;SDS011;44775;51.564;5.460;2022-12-17T10:49:14;100.57;;;40.00;;
58472;SDS011;44775;51.564;5.460;2022-12-17T10:52:26;91.63;;;36.47;;
58472;SDS011;44775;51.564;5.460;2022-12-17T10:58:18;101.20;;;39.93;;
58472;SDS011;44775;51.564;5.460;2022-12-17T11:01:04;93.78;;;36.58;;
58472;SDS011;44775;51.564;5.460;2022-12-17T11:03:53;96.05;;;40.55;;
58472;SDS011;44775;51.564;5.460;2022-12-17T11:06:39;94.72;;;38.45;;
58472;SDS011;44775;51.564;5.460;2022-12-17T11:09:47;90.75;;;37.17;;
58472;SDS011;44775;51.564;5.460;2022-12-17T11:12:47;97.13;;;39.28;;
58472;SDS011;44775;51.564;5.460;2022-12-17T11:15:50;93.45;;;36.80;;
58472;SDS011;44775;51.564;5.460;2022-12-17T11:21:47;96.60;;;37.47;;
58472;SDS011;44775;51.564;5.460;2022-12-17T11:24:37;92.03;;;36.03;;
58472;SDS011;44775;51.564;5.460;2022-12-17T11:27:28;89.72;;;36.03;;
58472;SDS011;44775;51.564;5.460;2022-12-17T11:30:17;94.93;;;36.75;;
58472;SDS011;44775;51.564;5.460;2022-12-17T11:36:06;90.03;;;33.47;;
58472;SDS011;44775;51.564;5.460;2022-12-17T11:39:06;89.28;;;37.35;;
58472;SDS011;44775;51.564;5.460;2022-12-17T11:42:07;81.75;;;30.25;;
58472;SDS011;44775;51.564;5.460;2022-12-17T11:45:03;92.43;;;36.78;;
58472;SDS011;44775;51.564;5.460;2022-12-17T11:48:07;93.60;;;37.88;;
58472;SDS011;44775;51.564;5.460;2022-12-17T11:51:11;68.90;;;29.10;;
58472;SDS011;44775;51.564;5.460;2022-12-17T11:57:02;91.22;;;37.58;;
58472;SDS011;44775;51.564;5.460;2022-12-17T12:00:00;90.85;;;36.17;;
58472;SDS011;44775;51.564;5.460;2022-12-17T12:06:02;87.90;;;35.47;;
58472;SDS011;44775;51.564;5.460;2022-12-17T12:15:18;94.28;;;37.20;;
58472;SDS011;44775;51.564;5.460;2022-12-17T12:18:02;96.63;;;37.28;;
58472;SDS011;44775;51.564;5.460;2022-12-17T12:30:15;91.85;;;36.85;;
58472;SDS011;44775;51.564;5.460;2022-12-17T12:35:51;96.03;;;37.28;;
58472;SDS011;44775;51.564;5.460;2022-12-17T12:38:39;93.17;;;37.10;;
58472;SDS011;44775;51.564;5.460;2022-12-17T12:42:11;92.82;;;36.95;;
58472;SDS011;44775;51.564;5.460;2022-12-17T12:47:45;86.90;;;34.00;;
58472;SDS011;44775;51.564;5.460;2022-12-17T12:53:55;89.20;;;35.55;;
58472;SDS011;44775;51.564;5.460;2022-12-17T12:56:42;93.78;;;36.90;;
58472;SDS011;44775;51.564;5.460;2022-12-17T12:59:30;100.95;;;39.10;;
58472;SDS011;44775;51.564;5.460;2022-12-17T13:05:04;84.95;;;32.25;;
58472;SDS011;44775;51.564;5.460;2022-12-17T13:10:31;90.57;;;35.55;;
58472;SDS011;44775;51.564;5.460;2022-12-17T13:15:50;90.45;;;36.72;;
58472;SDS011;44775;51.564;5.460;2022-12-17T13:18:22;92.82;;;35.67;;
58472;SDS011;44775;51.564;5.460;2022-12-17T13:21:03;95.07;;;37.30;;
58472;SDS011;44775;51.564;5.460;2022-12-17T13:23:46;94.57;;;36.13;;
58472;SDS011;44775;51.564;5.460;2022-12-17T13:26:13;98.00;;;37.13;;
58472;SDS011;44775;51.564;5.460;2022-12-17T13:28:39;93.47;;;35.47;;
58472;SDS011;44775;51.564;5.460;2022-12-17T13:31:12;99.22;;;38.88;;
58472;SDS011;44775;51.564;5.460;2022-12-17T13:36:18;102.32;;;38.55;;
58472;SDS011;44775;51.564;5.460;2022-12-17T13:41:35;106.05;;;39.65;;
58472;SDS011;44775;51.564;5.460;2022-12-17T13:44:11;101.22;;;37.80;;
58472;SDS011;44775;51.564;5.460;2022-12-17T13:46:46;83.43;;;31.35;;
58472;SDS011;44775;51.564;5.460;2022-12-17T13:49:18;95.82;;;34.25;;
58472;SDS011;44775;51.564;5.460;2022-12-17T13:51:58;95.90;;;35.33;;
58472;SDS011;44775;51.564;5.460;2022-12-17T13:54:32;103.35;;;35.78;;
58472;SDS011;44775;51.564;5.460;2022-12-17T13:57:08;95.45;;;34.92;;
58472;SDS011;44775;51.564;5.460;2022-12-17T13:59:37;97.75;;;37.05;;
58472;SDS011;44775;51.564;5.460;2022-12-17T14:02:03;108.22;;;37.22;;
58472;SDS011;44775;51.564;5.460;2022-12-17T14:04:28;112.53;;;38.22;;
58472;SDS011;44775;51.564;5.460;2022-12-17T14:06:55;112.25;;;38.28;;
58472;SDS011;44775;51.564;5.460;2022-12-17T14:09:26;102.97;;;35.25;;
58472;SDS011;44775;51.564;5.460;2022-12-17T14:11:57;110.53;;;38.85;;
58472;SDS011;44775;51.564;5.460;2022-12-17T14:14:46;93.25;;;32.83;;
58472;SDS011;44775;51.564;5.460;2022-12-17T14:17:18;102.32;;;33.92;;
58472;SDS011;44775;51.564;5.460;2022-12-17T14:19:46;109.95;;;36.50;;
58472;SDS011;44775;51.564;5.460;2022-12-17T14:22:17;104.82;;;38.22;;
58472;SDS011;44775;51.564;5.460;2022-12-17T14:24:50;111.85;;;38.97;;
58472;SDS011;44775;51.564;5.460;2022-12-17T14:27:21;106.72;;;37.38;;
58472;SDS011;44775;51.564;5.460;2022-12-17T14:29:54;105.25;;;37.78;;
58472;SDS011;44775;51.564;5.460;2022-12-17T14:32:21;107.78;;;38.13;;
58472;SDS011;44775;51.564;5.460;2022-12-17T14:35:21;112.38;;;38.25;;
58472;SDS011;44775;51.564;5.460;2022-12-17T14:37:54;88.10;;;30.92;;
58472;SDS011;44775;51.564;5.460;2022-12-17T14:40:21;105.50;;;36.70;;
58472;SDS011;44775;51.564;5.460;2022-12-17T14:42:49;111.28;;;39.22;;
58472;SDS011;44775;51.564;5.460;2022-12-17T14:47:56;112.50;;;36.83;;
58472;SDS011;44775;51.564;5.460;2022-12-17T14:52:50;100.25;;;33.17;;
58472;SDS011;44775;51.564;5.460;2022-12-17T14:55:35;107.28;;;36.83;;
58472;SDS011;44775;51.564;5.460;2022-12-17T14:58:16;105.65;;;36.60;;
58472;SDS011;44775;51.564;5.460;2022-12-17T15:00:54;103.50;;;35.17;;
58472;SDS011;44775;51.564;5.460;2022-12-17T15:03:30;109.97;;;36.85;;
58472;SDS011;44775;51.564;5.460;2022-12-17T15:06:00;106.38;;;35.50;;
58472;SDS011;44775;51.564;5.460;2022-12-17T15:08:38;93.53;;;33.58;;
58472;SDS011;44775;51.564;5.460;2022-12-17T15:11:11;104.88;;;35.63;;
58472;SDS011;44775;51.564;5.460;2022-12-17T15:13:38;94.85;;;33.38;;
58472;SDS011;44775;51.564;5.460;2022-12-17T15:16:03;89.28;;;31.08;;
58472;SDS011;44775;51.564;5.460;2022-12-17T15:18:29;99.88;;;34.03;;
58472;SDS011;44775;51.564;5.460;2022-12-17T15:20:54;95.65;;;33.55;;
58472;SDS011;44775;51.564;5.460;2022-12-17T15:23:20;97.38;;;33.25;;
58472;SDS011;44775;51.564;5.460;2022-12-17T15:25:48;93.30;;;32.92;;
58472;SDS011;44775;51.564;5.460;2022-12-17T15:28:15;101.22;;;33.28;;
58472;SDS011;44775;51.564;5.460;2022-12-17T15:30:42;109.70;;;35.10;;
58472;SDS011;44775;51.564;5.460;2022-12-17T15:33:07;110.43;;;36.97;;
58472;SDS011;44775;51.564;5.460;2022-12-17T15:35:35;105.18;;;34.33;;
58472;SDS011;44775;51.564;5.460;2022-12-17T15:38:01;105.25;;;36.42;;
58472;SDS011;44775;51.564;5.460;2022-12-17T15:40:27;104.03;;;35.42;;
58472;SDS011;44775;51.564;5.460;2022-12-17T15:42:53;100.85;;;32.13;;
58472;SDS011;44775;51.564;5.460;2022-12-17T15:45:37;105.10;;;34.75;;
58472;SDS011;44775;51.564;5.460;2022-12-17T15:48:10;117.22;;;37.55;;
58472;SDS011;44775;51.564;5.460;2022-12-17T15:50:38;112.15;;;34.65;;
58472;SDS011;44775;51.564;5.460;2022-12-17T15:53:04;109.80;;;34.80;;
58472;SDS011;44775;51.564;5.460;2022-12-17T15:55:30;114.55;;;34.13;;
58472;SDS011;44775;51.564;5.460;2022-12-17T15:57:56;118.30;;;37.47;;
58472;SDS011;44775;51.564;5.460;2022-12-17T16:00:22;114.68;;;36.95;;
58472;SDS011;44775;51.564;5.460;2022-12-17T16:02:48;115.90;;;35.35;;
58472;SDS011;44775;51.564;5.460;2022-12-17T16:05:14;115.40;;;35.30;;
58472;SDS011;44775;51.564;5.460;2022-12-17T16:07:40;122.63;;;36.58;;
58472;SDS011;44775;51.564;5.460;2022-12-17T16:10:08;128.43;;;37.30;;
58472;SDS011;44775;51.564;5.460;2022-12-17T16:12:34;119.15;;;35.72;;
58472;SDS011;44775;51.564;5.460;2022-12-17T16:15:00;129.30;;;38.42;;
58472;SDS011;44775;51.564;5.460;2022-12-17T16:17:26;126.65;;;38.97;;
58472;SDS011;44775;51.564;5.460;2022-12-17T16:19:51;84.40;;;23.13;;
58472;SDS011;44775;51.564;5.460;2022-12-17T16:22:17;122.60;;;36.10;;
58472;SDS011;44775;51.564;5.460;2022-12-17T16:24:42;124.15;;;37.63;;
58472;SDS011;44775;51.564;5.460;2022-12-17T16:27:08;117.57;;;35.28;;
58472;SDS011;44775;51.564;5.460;2022-12-17T16:29:33;110.75;;;35.67;;
58472;SDS011;44775;51.564;5.460;2022-12-17T16:31:59;130.80;;;40.42;;
58472;SDS011;44775;51.564;5.460;2022-12-17T16:34:25;127.15;;;39.58;;
58472;SDS011;44775;51.564;5.460;2022-12-17T16:36:50;117.53;;;36.25;;
58472;SDS011;44775;51.564;5.460;2022-12-17T16:39:16;122.40;;;37.00;;
58472;SDS011;44775;51.564;5.460;2022-12-17T16:41:43;123.20;;;37.88;;
58472;SDS011;44775;51.564;5.460;2022-12-17T16:44:09;126.90;;;37.38;;
58472;SDS011;44775;51.564;5.460;2022-12-17T16:46:36;127.22;;;39.67;;
58472;SDS011;44775;51.564;5.460;2022-12-17T16:49:08;132.43;;;41.05;;
58472;SDS011;44775;51.564;5.460;2022-12-17T16:51:34;125.30;;;37.28;;